Time;durP1;ratioP1;P1;durP2;ratioP2;P2;SDS_P1;SDS_P2;PMS_P1;PMS_P2;Temp;Humidity;BMP_temperature;BMP_pressure;BME280_temperature;BME280_humidity;BME280_pressure;Samples;Min_cycle;Max_cycle;Signal;HPM_P1;HPM_P2
2023/08/31 00:00:11;;;;;;;8.17;7.67;;;;;;;19.00;69.91;92375.16;5068410;28;20214;-78
2023/08/31 00:02:39;;;;;;;9.10;8.53;;;;;;;18.86;71.48;92369.47;5081754;28;20183;-78
2023/08/31 00:05:05;;;;;;;8.73;8.23;;;;;;;18.80;71.11;92381.38;5066513;28;20199;-79
2023/08/31 00:07:30;;;;;;;8.30;7.47;;;;;;;18.71;71.79;92378.06;5078359;28;20179;-79
2023/08/31 00:09:56;;;;;;;9.80;7.90;;;;;;;18.65;71.56;92372.25;5072091;28;20198;-78
2023/08/31 00:12:22;;;;;;;8.57;7.83;;;;;;;18.65;71.64;92379.41;5070092;28;20210;-79
2023/08/31 00:14:49;;;;;;;9.33;8.07;;;;;;;18.48;72.46;92380.44;5081687;28;20215;-79
2023/08/31 00:17:14;;;;;;;8.17;7.63;;;;;;;18.54;72.31;92386.25;5070992;28;20218;-79
2023/08/31 00:19:40;;;;;;;8.90;8.10;;;;;;;18.49;71.99;92378.56;5067936;28;20191;-79
2023/08/31 00:22:05;;;;;;;8.73;8.00;;;;;;;18.57;72.81;92377.66;5068411;28;20228;-78
2023/08/31 00:24:33;;;;;;;8.70;8.00;;;;;;;18.52;73.88;92370.72;5069615;28;20242;-79
2023/08/31 00:26:58;;;;;;;8.23;7.63;;;;;;;18.52;73.13;92383.19;5066869;28;20220;-80
2023/08/31 00:29:25;;;;;;;8.73;8.20;;;;;;;18.48;73.18;92387.59;5058292;28;20198;-79
2023/08/31 00:31:53;;;;;;;8.73;7.93;;;;;;;18.53;73.45;92387.38;5068569;28;20235;-80
2023/08/31 00:34:18;;;;;;;8.77;8.10;;;;;;;18.37;73.51;92386.44;5069344;28;20191;-79
2023/08/31 00:36:44;;;;;;;8.03;7.23;;;;;;;18.47;72.48;92386.06;5068723;28;20254;-79
2023/08/31 00:39:11;;;;;;;9.00;8.20;;;;;;;18.41;73.04;92390.03;5068547;28;20190;-79
2023/08/31 00:41:37;;;;;;;8.63;7.90;;;;;;;18.37;72.79;92389.88;5069274;28;20230;-79
2023/08/31 00:44:04;;;;;;;8.07;7.47;;;;;;;18.67;70.06;92399.16;5069644;28;20183;-79
2023/08/31 00:46:31;;;;;;;9.80;8.50;;;;;;;18.79;69.08;92401.00;5067068;28;20226;-79
2023/08/31 00:48:57;;;;;;;8.70;8.10;;;;;;;19.04;67.82;92407.78;5069454;28;20187;-79
2023/08/31 00:51:24;;;;;;;9.10;8.23;;;;;;;19.10;68.90;92406.44;5068457;28;20253;-83
2023/08/31 00:53:53;;;;;;;8.30;7.80;;;;;;;18.96;68.68;92395.44;5068791;28;20215;-82
2023/08/31 00:56:19;;;;;;;8.93;8.33;;;;;;;19.09;67.80;92404.91;5072724;28;20245;-84
2023/08/31 00:58:44;;;;;;;8.43;7.77;;;;;;;19.07;68.54;92405.25;5073698;28;20183;-84
2023/08/31 01:01:31;;;;;;;8.23;7.70;;;;;;;19.06;69.18;92410.88;5071687;28;21028;-83
2023/08/31 01:04:27;;;;;;;7.90;7.37;;;;;;;19.13;67.56;92411.06;5073541;28;20194;-85
2023/08/31 01:07:18;;;;;;;7.93;7.23;;;;;;;19.19;68.81;92415.03;5058487;28;20222;-83
2023/08/31 01:10:01;;;;;;;7.73;7.13;;;;;;;19.15;67.59;92412.28;5058747;28;20179;-85
2023/08/31 01:12:29;;;;;;;9.33;8.57;;;;;;;19.06;69.29;92408.22;5073045;28;20227;-84
2023/08/31 01:15:07;;;;;;;8.33;7.77;;;;;;;19.03;68.59;92419.47;5073693;28;20220;-83
2023/08/31 01:17:37;;;;;;;8.20;7.43;;;;;;;18.89;70.52;92413.78;5073391;28;20206;-85
2023/08/31 01:20:06;;;;;;;8.67;7.87;;;;;;;18.85;70.04;92397.78;5072964;28;20186;-84
2023/08/31 01:22:42;;;;;;;8.10;7.50;;;;;;;18.81;69.92;92404.06;5072223;28;20285;-84
2023/08/31 01:25:09;;;;;;;8.97;8.07;;;;;;;18.97;69.97;92423.47;5071362;28;20195;-83
2023/08/31 01:27:36;;;;;;;8.00;7.43;;;;;;;19.05;69.70;92420.66;5072349;28;20246;-84
2023/08/31 01:30:03;;;;;;;8.07;7.57;;;;;;;18.94;70.16;92410.91;5072545;28;20193;-85
2023/08/31 01:32:29;;;;;;;7.87;7.27;;;;;;;18.69;71.59;92417.31;5071677;28;20211;-84
2023/08/31 01:34:57;;;;;;;9.73;7.37;;;;;;;18.74;70.38;92409.19;5072768;28;20198;-84
2023/08/31 01:37:31;;;;;;;8.73;8.13;;;;;;;18.71;71.19;92409.81;5071082;28;20230;-84
2023/08/31 01:40:06;;;;;;;7.93;7.43;;;;;;;18.84;72.31;92400.75;5072115;28;20186;-79
2023/08/31 01:42:31;;;;;;;9.17;8.57;;;;;;;18.71;72.05;92400.00;5072857;28;20181;-81
2023/08/31 01:44:59;;;;;;;7.90;7.43;;;;;;;18.84;72.46;92398.13;5069071;28;20203;-82
2023/08/31 01:47:25;;;;;;;7.50;7.00;;;;;;;18.79;72.67;92401.00;5072043;28;20190;-84
2023/08/31 01:49:51;;;;;;;8.57;7.77;;;;;;;18.69;73.47;92390.88;5069970;28;20187;-80
2023/08/31 01:52:16;;;;;;;8.23;7.77;;;;;;;18.65;74.00;92397.91;5072474;28;20266;-82
2023/08/31 01:54:41;;;;;;;8.07;7.50;;;;;;;18.59;73.25;92404.53;5071498;28;20206;-84
2023/08/31 01:57:07;;;;;;;8.93;8.13;;;;;;;18.54;73.59;92397.59;5072401;28;20243;-84
2023/08/31 01:59:33;;;;;;;7.83;7.33;;;;;;;18.31;73.87;92383.28;5056425;28;20246;-82
2023/08/31 02:01:59;;;;;;;8.60;7.83;;;;;;;18.38;73.42;92411.84;5071032;28;20254;-83
2023/08/31 02:04:25;;;;;;;7.87;7.27;;;;;;;18.46;74.37;92409.06;5068005;28;20190;-84
2023/08/31 02:06:50;;;;;;;7.57;7.13;;;;;;;18.51;73.92;92422.06;5072144;28;20225;-85
2023/08/31 02:09:16;;;;;;;9.67;8.97;;;;;;;18.39;74.13;92408.06;5056975;28;20213;-84
2023/08/31 02:11:41;;;;;;;8.37;7.83;;;;;;;18.27;74.39;92415.97;5059021;28;20263;-84
2023/08/31 02:14:07;;;;;;;8.40;7.83;;;;;;;18.34;74.92;92421.47;5071988;28;20194;-84
2023/08/31 02:16:33;;;;;;;8.73;7.97;;;;;;;18.05;75.49;92429.59;5063480;28;20228;-83
2023/08/31 02:18:59;;;;;;;8.17;7.67;;;;;;;17.89;75.56;92432.09;5071642;28;20172;-85
2023/08/31 02:21:24;;;;;;;10.30;7.90;;;;;;;17.86;75.68;92426.69;5066214;28;20234;-86
2023/08/31 02:23:50;;;;;;;8.43;7.73;;;;;;;17.93;75.24;92421.66;5060708;28;20215;-84
2023/08/31 02:26:15;;;;;;;8.47;7.87;;;;;;;17.93;75.14;92421.66;5066484;28;20248;-83
2023/08/31 02:28:40;;;;;;;8.97;8.17;;;;;;;17.88;75.27;92420.00;5060905;28;20195;-83
2023/08/31 02:31:06;;;;;;;8.27;7.57;;;;;;;17.86;75.58;92421.41;5070942;28;20290;-85
2023/08/31 02:33:31;;;;;;;9.43;8.70;;;;;;;17.76;76.79;92419.22;5062323;28;20179;-85
2023/08/31 02:35:57;;;;;;;7.23;6.77;;;;;;;17.78;76.87;92425.69;5070786;28;20234;-84
2023/08/31 02:38:22;;;;;;;8.60;7.90;;;;;;;17.75;76.54;92425.56;5068081;28;20189;-83
2023/08/31 02:40:48;;;;;;;12.33;8.90;;;;;;;17.86;78.01;92421.41;5071219;28;21045;-83
2023/08/31 02:43:14;;;;;;;8.43;7.63;;;;;;;17.83;77.49;92412.28;5064595;28;20179;-84
2023/08/31 02:45:39;;;;;;;8.73;8.00;;;;;;;17.76;77.26;92411.28;5069729;28;20221;-81
2023/08/31 02:48:08;;;;;;;9.40;8.77;;;;;;;17.79;76.63;92405.34;5063690;28;20186;-84
2023/08/31 02:50:36;;;;;;;8.77;8.07;;;;;;;17.63;77.33;92408.59;5061624;28;20222;-84
2023/08/31 02:53:02;;;;;;;9.37;8.60;;;;;;;17.59;77.83;92422.75;5064895;28;20187;-83
2023/08/31 02:55:27;;;;;;;9.03;7.87;;;;;;;17.47;79.33;92420.09;5063733;28;20217;-83
2023/08/31 02:57:53;;;;;;;8.50;8.00;;;;;;;17.43;79.57;92429.75;5070340;28;20197;-84
2023/08/31 03:00:21;;;;;;;9.60;8.77;;;;;;;17.35;80.19;92430.59;5070106;28;20271;-80
2023/08/31 03:02:47;;;;;;;8.40;7.80;;;;;;;17.33;80.04;92420.34;5058031;28;20174;-83
2023/08/31 03:05:13;;;;;;;9.27;8.40;;;;;;;17.29;79.63;92434.53;5070271;28;20982;-84
2023/08/31 03:07:38;;;;;;;8.93;8.43;;;;;;;17.31;79.48;92435.72;5055169;28;20175;-78
2023/08/31 03:10:04;;;;;;;8.90;8.13;;;;;;;17.22;79.02;92445.59;5059337;28;20191;-84
2023/08/31 03:12:30;;;;;;;11.33;9.43;;;;;;;17.13;79.63;92450.16;5070414;28;20205;-85
2023/08/31 03:14:55;;;;;;;8.27;7.67;;;;;;;17.05;79.44;92445.72;5070757;28;20186;-82
2023/08/31 03:17:20;;;;;;;9.60;8.60;;;;;;;17.25;79.36;92444.16;5058685;28;20182;-83
2023/08/31 03:19:46;;;;;;;12.07;8.30;;;;;;;17.19;79.23;92451.50;5081375;28;20177;-85
2023/08/31 03:22:11;;;;;;;8.70;7.97;;;;;;;17.13;79.22;92452.81;5056874;28;20281;-83
2023/08/31 03:24:36;;;;;;;9.50;7.97;;;;;;;17.19;78.75;92450.72;5079349;28;20202;-85
2023/08/31 03:27:03;;;;;;;9.57;8.83;;;;;;;17.18;78.89;92449.94;5074789;28;20224;-81
2023/08/31 03:29:28;;;;;;;11.20;8.67;;;;;;;17.20;78.82;92458.31;5070106;28;20190;-82
2023/08/31 03:31:54;;;;;;;8.13;7.60;;;;;;;17.15;79.81;92449.84;5067986;28;20248;-83
2023/08/31 03:34:20;;;;;;;8.93;8.43;;;;;;;17.36;77.86;92450.59;5059098;28;20197;-84
2023/08/31 03:36:45;;;;;;;8.23;7.73;;;;;;;17.04;79.10;92449.44;5070011;28;20229;-80
2023/08/31 03:39:11;;;;;;;8.63;8.10;;;;;;;16.83;79.45;92426.78;5070012;28;20196;-84
2023/08/31 03:41:36;;;;;;;8.90;8.20;;;;;;;17.13;79.15;92452.81;5069562;28;20232;-82
2023/08/31 03:44:02;;;;;;;9.17;8.47;;;;;;;16.98;79.51;92442.81;5070617;28;20182;-83
2023/08/31 03:46:27;;;;;;;9.67;8.90;;;;;;;17.00;80.24;92459.09;5068611;28;20229;-81
2023/08/31 03:48:52;;;;;;;8.70;8.10;;;;;;;16.85;80.24;92446.47;5059504;28;20485;-83
2023/08/31 03:51:18;;;;;;;9.17;8.50;;;;;;;16.94;80.10;92462.22;5055929;28;20297;-82
2023/08/31 03:53:44;;;;;;;9.10;8.33;;;;;;;16.95;79.91;92463.78;5059695;28;20232;-82
2023/08/31 03:56:09;;;;;;;9.23;8.53;;;;;;;16.98;79.28;92465.78;5068510;28;20225;-81
2023/08/31 03:58:34;;;;;;;9.47;8.67;;;;;;;17.04;78.75;92475.81;5069483;28;20185;-82
2023/08/31 04:01:00;;;;;;;8.13;7.70;;;;;;;17.19;79.08;92471.84;5068337;28;20233;-83
2023/08/31 04:03:25;;;;;;;9.00;8.10;;;;;;;17.31;78.10;92464.75;5056897;28;20194;-82
2023/08/31 04:05:55;;;;;;;8.10;7.30;;;;;;;17.42;77.94;92480.97;5069854;28;20232;-84
2023/08/31 04:08:20;;;;;;;7.67;7.10;;;;;;;17.45;77.63;92491.69;5070297;28;20189;-82
2023/08/31 04:10:46;;;;;;;8.50;7.80;;;;;;;17.41;77.76;92501.31;5067767;28;20234;-82
2023/08/31 04:13:11;;;;;;;8.67;8.13;;;;;;;17.44;78.32;92500.72;5069679;28;20208;-82
2023/08/31 04:15:36;;;;;;;8.67;8.23;;;;;;;17.44;79.61;92500.72;5067557;28;20213;-83
2023/08/31 04:18:02;;;;;;;9.67;8.70;;;;;;;17.31;81.03;92496.41;5067806;28;20193;-84
2023/08/31 04:20:27;;;;;;;10.13;9.43;;;;;;;17.46;81.08;92503.03;5067091;28;20229;-85
2023/08/31 04:22:53;;;;;;;8.70;7.90;;;;;;;17.45;80.14;92504.88;5069887;28;20186;-83
2023/08/31 04:25:18;;;;;;;9.47;8.60;;;;;;;17.62;78.04;92500.56;5069339;28;20223;-84
2023/08/31 04:27:45;;;;;;;8.70;8.00;;;;;;;17.67;78.40;92519.63;5070062;28;20949;-84
2023/08/31 04:30:11;;;;;;;8.53;7.93;;;;;;;17.77;77.47;92510.53;5067331;28;20232;-83
2023/08/31 04:32:37;;;;;;;8.60;7.83;;;;;;;17.82;78.92;92520.91;5069711;28;20182;-83
2023/08/31 04:35:05;;;;;;;12.47;8.50;;;;;;;17.85;78.60;92521.03;5067066;28;20188;-82
2023/08/31 04:37:31;;;;;;;10.97;8.63;;;;;;;17.57;78.99;92512.09;5068681;28;20230;-84
2023/08/31 04:39:57;;;;;;;8.83;8.03;;;;;;;17.86;78.73;92529.69;5066278;28;20189;-83
2023/08/31 04:42:23;;;;;;;9.00;8.37;;;;;;;18.04;77.06;92536.38;5059094;28;20178;-84
2023/08/31 04:44:49;;;;;;;8.70;7.97;;;;;;;18.12;77.21;92535.50;5067583;28;20262;-84
2023/08/31 04:47:15;;;;;;;8.43;7.93;;;;;;;18.14;78.94;92536.75;5083764;28;20214;-84
2023/08/31 04:49:40;;;;;;;9.60;8.60;;;;;;;18.15;77.30;92532.25;5067668;28;20187;-84
2023/08/31 04:52:06;;;;;;;10.97;8.40;;;;;;;18.01;77.28;92502.69;5070053;28;20238;-83
2023/08/31 04:54:31;;;;;;;10.40;9.27;;;;;;;18.23;79.13;92532.16;5064911;28;20829;-75
2023/08/31 04:56:56;;;;;;;8.10;7.57;;;;;;;18.41;78.42;92538.81;5068030;28;20254;-75
2023/08/31 04:59:22;;;;;;;9.60;8.70;;;;;;;18.55;77.78;92541.16;5068597;28;20188;-77
2023/08/31 05:01:47;;;;;;;12.87;8.47;;;;;;;18.67;77.43;92534.03;5069134;28;20301;-75
2023/08/31 05:04:12;;;;;;;9.00;8.13;;;;;;;18.78;75.58;92534.34;5056933;28;20204;-79
2023/08/31 05:06:38;;;;;;;8.77;7.90;;;;;;;18.81;74.51;92538.97;5060411;28;20231;-77
2023/08/31 05:09:03;;;;;;;9.70;8.67;;;;;;;18.93;74.17;92539.75;5058555;28;20246;-77
2023/08/31 05:11:29;;;;;;;10.10;7.17;;;;;;;19.12;73.00;92541.84;5069188;28;20258;-73
2023/08/31 05:13:55;;;;;;;8.03;7.43;;;;;;;19.06;72.57;92532.59;5065438;28;20256;-80
2023/08/31 05:16:20;;;;;;;9.10;7.93;;;;;;;19.31;71.71;92536.78;5070956;28;20238;-77
2023/08/31 05:18:45;;;;;;;9.20;8.50;;;;;;;19.62;70.07;92544.91;5053377;28;20226;-74
2023/08/31 05:21:11;;;;;;;8.77;8.03;;;;;;;19.41;68.98;92544.25;5070983;28;20264;-73
2023/08/31 05:23:37;;;;;;;8.17;7.23;;;;;;;19.65;68.31;92554.81;5057426;28;20195;-72
2023/08/31 05:26:02;;;;;;;9.67;8.70;;;;;;;19.77;66.67;92540.75;5063486;28;20302;-73
2023/08/31 05:28:27;;;;;;;8.63;7.63;;;;;;;20.20;66.49;92544.25;5052324;28;20201;-73
2023/08/31 05:30:56;;;;;;;9.53;8.20;;;;;;;20.10;68.05;92547.38;5054731;28;20235;-79
2023/08/31 05:33:28;;;;;;;8.93;8.23;;;;;;;20.14;67.45;92548.28;5063845;28;20218;-73
2023/08/31 05:35:54;;;;;;;8.03;7.10;;;;;;;20.31;66.32;92553.28;5054953;28;20235;-75
2023/08/31 05:38:20;;;;;;;9.07;8.47;;;;;;;20.61;63.79;92554.44;5049680;28;20196;-83
2023/08/31 05:40:46;;;;;;;8.77;8.07;;;;;;;20.44;63.98;92538.84;5061730;28;20236;-79
2023/08/31 05:43:14;;;;;;;8.40;7.90;;;;;;;20.24;62.88;92545.16;5054267;28;20187;-79
2023/08/31 05:45:40;;;;;;;8.95;8.10;;;;;;;20.22;62.59;92542.06;5066638;28;20275;-80
2023/08/31 05:48:05;;;;;;;8.43;7.73;;;;;;;20.68;62.06;92544.00;5052169;28;20189;-74
2023/08/31 05:50:31;;;;;;;7.95;7.13;;;;;;;20.46;63.56;92552.56;5065005;28;20225;-77
2023/08/31 05:52:57;;;;;;;7.95;7.20;;;;;;;20.68;60.94;92559.91;5064590;28;20196;-74
2023/08/31 05:55:22;;;;;;;8.60;7.22;;;;;;;21.43;59.82;92562.50;5064704;28;20244;-82
2023/08/31 05:57:48;;;;;;;7.78;7.20;;;;;;;21.98;58.17;92554.22;5072829;28;20254;-75
2023/08/31 06:00:13;;;;;;;10.63;8.13;;;;;;;23.05;55.41;92563.81;5082051;28;20236;-73
2023/08/31 06:02:39;;;;;;;8.57;7.70;;;;;;;23.48;53.13;92561.50;5081160;28;20186;-77
2023/08/31 06:05:05;;;;;;;7.32;6.82;;;;;;;21.89;55.57;92556.31;5082172;28;20186;-75
2023/08/31 06:07:31;;;;;;;7.05;6.60;;;;;;;21.51;57.59;92569.50;5059584;28;20189;-74
2023/08/31 06:09:56;;;;;;;7.78;7.25;;;;;;;21.47;57.73;92568.66;5055737;28;20228;-77
2023/08/31 06:12:24;;;;;;;7.88;7.15;;;;;;;21.47;58.52;92566.00;5067628;28;20238;-76
2023/08/31 06:14:50;;;;;;;8.00;7.20;;;;;;;21.20;58.95;92569.56;5063418;28;20181;-72
2023/08/31 06:17:15;;;;;;;8.43;7.63;;;;;;;21.46;57.99;92551.19;5071558;28;20195;-77
2023/08/31 06:19:42;;;;;;;10.57;9.70;;;;;;;21.13;58.22;92572.03;5061985;28;20209;-78
2023/08/31 06:22:08;;;;;;;10.55;7.43;;;;;;;21.28;59.93;92569.38;5058088;28;20253;-78
2023/08/31 06:24:33;;;;;;;7.28;6.68;;;;;;;21.79;57.98;92580.78;5058906;28;20180;-75
2023/08/31 06:26:59;;;;;;;8.98;8.07;;;;;;;21.61;59.04;92584.91;5066826;28;20244;-74
2023/08/31 06:29:25;;;;;;;8.55;7.75;;;;;;;22.03;57.64;92585.84;5060443;28;20185;-76
2023/08/31 06:31:50;;;;;;;8.93;8.27;;;;;;;21.94;56.64;92594.03;5063017;28;21000;-78
2023/08/31 06:34:16;;;;;;;8.18;7.47;;;;;;;21.69;57.34;92555.50;5071632;28;20197;-78
2023/08/31 06:36:41;;;;;;;8.68;7.82;;;;;;;21.96;58.29;92594.44;5067167;28;20239;-78
2023/08/31 06:39:07;;;;;;;8.55;7.85;;;;;;;21.99;58.00;92595.66;5056524;28;20199;-88
2023/08/31 06:41:32;;;;;;;7.85;7.25;;;;;;;21.86;57.65;92602.19;5057656;28;20292;-86
2023/08/31 06:43:58;;;;;;;9.27;7.95;;;;;;;21.80;57.63;92592.94;5068411;28;20193;-92
2023/08/31 06:46:23;;;;;;;9.65;7.75;;;;;;;21.58;59.22;92606.84;5069211;28;20233;-85
2023/08/31 06:48:49;;;;;;;8.93;7.75;;;;;;;21.65;59.86;92607.78;5056783;28;20207;-86
2023/08/31 06:51:15;;;;;;;9.35;8.40;;;;;;;22.10;58.21;92602.72;5062056;28;20234;-85
2023/08/31 06:53:43;;;;;;;9.05;7.93;;;;;;;22.13;57.79;92603.91;5063067;28;20197;-84
2023/08/31 06:56:08;;;;;;;8.65;7.85;;;;;;;21.92;57.53;92596.25;5063206;28;20233;-88
2023/08/31 06:58:34;;;;;;;8.52;7.82;;;;;;;21.70;58.66;92609.41;5070408;28;21105;-88
2023/08/31 07:00:59;;;;;;;8.60;7.72;;;;;;;21.72;57.75;92615.91;5069758;28;20253;-83
2023/08/31 07:03:24;;;;;;;9.02;8.15;;;;;;;21.62;58.29;92603.16;5065861;28;20207;-82
2023/08/31 07:05:50;;;;;;;13.95;8.98;;;;;;;21.71;58.53;92616.28;5056793;28;20218;-84
2023/08/31 07:08:15;;;;;;;16.55;8.35;;;;;;;22.17;57.10;92618.03;5068540;28;20188;-83
2023/08/31 07:10:40;;;;;;;8.55;7.85;;;;;;;22.33;57.78;92618.75;5064551;28;20248;-81
2023/08/31 07:13:06;;;;;;;9.85;8.85;;;;;;;22.31;57.86;92622.88;5068438;28;20204;-82
2023/08/31 07:15:31;;;;;;;14.23;9.32;;;;;;;22.00;57.84;92624.53;5068493;28;20259;-78
2023/08/31 07:17:57;;;;;;;9.55;8.73;;;;;;;22.02;58.41;92624.94;5056090;28;20184;-76
2023/08/31 07:20:24;;;;;;;11.10;9.23;;;;;;;22.01;58.23;92625.28;5049020;28;20220;-81
2023/08/31 07:22:49;;;;;;;10.55;8.52;;;;;;;22.42;57.71;92632.63;5064216;28;20222;-75
2023/08/31 07:25:14;;;;;;;11.30;8.45;;;;;;;22.69;56.96;92625.56;5068807;28;20364;-76
2023/08/31 07:27:40;;;;;;;11.82;7.80;;;;;;;23.12;55.37;92620.63;5068205;28;20193;-78
2023/08/31 07:30:06;;;;;;;10.27;9.07;;;;;;;23.16;54.17;92632.09;5063450;28;20190;-76
2023/08/31 07:32:32;;;;;;;8.48;7.78;;;;;;;23.10;54.28;92624.75;5054734;28;20268;-76
2023/08/31 07:34:57;;;;;;;9.32;8.63;;;;;;;23.12;54.36;92625.19;5060640;28;20178;-77
2023/08/31 07:37:23;;;;;;;9.57;8.57;;;;;;;22.88;54.99;92615.63;5062965;28;20276;-77
2023/08/31 07:39:48;;;;;;;8.85;8.02;;;;;;;22.89;55.61;92633.16;5058850;28;20188;-77
2023/08/31 07:42:13;;;;;;;11.98;10.38;;;;;;;23.07;55.25;92618.25;5059926;28;20234;-76
2023/08/31 07:44:41;;;;;;;9.63;8.85;;;;;;;23.51;53.68;92626.63;5069605;28;20259;-75
2023/08/31 07:47:07;;;;;;;10.10;9.15;;;;;;;23.58;53.91;92638.16;5068179;28;20247;-73
2023/08/31 07:49:32;;;;;;;10.40;8.43;;;;;;;23.75;53.60;92631.56;5062246;28;20168;-77
2023/08/31 07:51:57;;;;;;;10.27;8.57;;;;;;;23.68;54.05;92634.91;5066930;28;20222;-75
2023/08/31 07:54:23;;;;;;;12.70;8.15;;;;;;;23.58;52.63;92624.09;5060227;28;20187;-77
2023/08/31 07:56:49;;;;;;;11.43;7.72;;;;;;;23.26;52.01;92633.44;5069441;28;20240;-74
2023/08/31 07:59:14;;;;;;;9.07;8.00;;;;;;;23.57;51.56;92636.63;5068526;28;20184;-73
2023/08/31 08:01:43;;;;;;;9.02;8.23;;;;;;;23.56;52.31;92635.06;5073579;28;20238;-78
2023/08/31 08:04:08;;;;;;;10.07;7.90;;;;;;;23.59;51.44;92639.72;5069285;28;20196;-75
2023/08/31 08:06:34;;;;;;;9.10;8.18;;;;;;;23.91;51.84;92642.09;5071929;28;20290;-75
2023/08/31 08:08:59;;;;;;;9.25;8.30;;;;;;;23.88;51.91;92640.16;5060206;28;20223;-75
2023/08/31 08:11:25;;;;;;;10.02;8.00;;;;;;;23.94;49.81;92644.78;5070459;28;20219;-75
2023/08/31 08:13:50;;;;;;;8.30;7.53;;;;;;;24.09;51.74;92645.78;5069409;28;20199;-76
2023/08/31 08:16:15;;;;;;;12.23;10.98;;;;;;;23.87;52.05;92644.69;5065898;28;20254;-77
2023/08/31 08:18:41;;;;;;;12.85;8.43;;;;;;;23.98;50.89;92645.66;5062428;28;20199;-76
2023/08/31 08:21:06;;;;;;;10.18;7.40;;;;;;;24.06;51.14;92633.19;5061591;28;20224;-76
2023/08/31 08:23:32;;;;;;;13.32;11.43;;;;;;;24.02;49.79;92629.69;5054128;28;20272;-76
2023/08/31 08:26:00;;;;;;;8.90;8.10;;;;;;;23.73;51.16;92637.28;5056767;28;20235;-79
2023/08/31 08:28:26;;;;;;;10.73;9.73;;;;;;;23.76;43.90;92638.44;5060485;28;20255;-78
2023/08/31 08:30:51;;;;;;;10.55;9.65;;;;;;;23.67;41.02;92638.69;5062464;28;20230;-78
2023/08/31 08:33:17;;;;;;;10.73;9.73;;;;;;;23.62;36.94;92628.34;5064393;28;20207;-78
2023/08/31 08:35:42;;;;;;;11.10;10.02;;;;;;;23.75;39.57;92636.91;5066547;28;20346;-78
2023/08/31 08:38:08;;;;;;;9.82;8.93;;;;;;;23.89;39.77;92647.00;5052111;28;20204;-78
2023/08/31 08:40:34;;;;;;;11.93;9.88;;;;;;;23.98;37.23;92640.31;5052425;28;20228;-76
2023/08/31 08:43:06;;;;;;;11.38;10.27;;;;;;;23.92;40.14;92640.94;5053707;28;20239;-78
2023/08/31 08:45:37;;;;;;;10.93;9.90;;;;;;;23.77;40.46;92643.41;5050967;28;20216;-77
2023/08/31 08:48:05;;;;;;;11.75;10.55;;;;;;;23.62;40.47;92636.34;5057184;28;20187;-76
2023/08/31 08:50:33;;;;;;;16.65;10.35;;;;;;;23.59;40.23;92639.72;5057464;28;20235;-78
2023/08/31 08:53:00;;;;;;;10.85;9.95;;;;;;;23.67;38.30;92643.25;5068587;28;20180;-79
2023/08/31 08:55:25;;;;;;;10.27;9.27;;;;;;;23.64;39.14;92630.66;5071653;28;20242;-79
2023/08/31 08:57:50;;;;;;;10.35;9.45;;;;;;;23.51;40.52;92635.41;5068891;28;20212;-77
2023/08/31 09:00:16;;;;;;;10.88;9.63;;;;;;;23.71;39.88;92636.06;5076177;28;20223;-79
2023/08/31 09:02:41;;;;;;;11.43;10.40;;;;;;;23.77;40.62;92632.75;5067243;28;20189;-79
2023/08/31 09:05:07;;;;;;;10.27;9.40;;;;;;;23.50;39.55;92625.84;5063521;28;20203;-81
2023/08/31 09:07:37;;;;;;;10.15;9.25;;;;;;;23.58;39.85;92635.50;5066569;28;20184;-82
2023/08/31 09:10:04;;;;;;;10.95;10.00;;;;;;;23.53;39.18;92622.47;5072807;28;20978;-79
2023/08/31 09:12:29;;;;;;;9.82;9.02;;;;;;;23.42;39.33;92639.44;5064032;28;20226;-79
2023/08/31 09:15:04;;;;;;;9.05;8.25;;;;;;;23.22;39.80;92595.31;5064578;28;20188;-80
2023/08/31 09:17:41;;;;;;;11.93;9.70;;;;;;;23.70;40.56;92632.63;5071275;28;20184;-78
2023/08/31 09:20:07;;;;;;;12.75;9.93;;;;;;;23.74;38.94;92632.69;5065607;28;20190;-78
2023/08/31 09:22:33;;;;;;;11.27;10.27;;;;;;;23.78;38.66;92630.84;5068098;28;20256;-78
2023/08/31 09:24:59;;;;;;;10.18;9.25;;;;;;;23.76;38.97;92641.09;5067629;28;20216;-78
2023/08/31 09:27:24;;;;;;;10.70;9.63;;;;;;;23.69;40.38;92635.66;5069195;28;20223;-77
2023/08/31 09:29:50;;;;;;;11.27;10.07;;;;;;;23.69;40.58;92630.31;5064772;28;20201;-72
2023/08/31 09:32:19;;;;;;;10.75;9.80;;;;;;;23.75;38.92;92626.25;5069339;28;20246;-78
2023/08/31 09:34:45;;;;;;;10.23;9.25;;;;;;;23.89;40.52;92639.00;5060977;28;20995;-78
2023/08/31 09:37:10;;;;;;;10.38;9.57;;;;;;;24.09;40.05;92624.44;5077644;28;20228;-78
2023/08/31 09:39:37;;;;;;;10.05;9.05;;;;;;;23.89;40.29;92623.00;5057022;28;20189;-80
2023/08/31 09:42:03;;;;;;;10.57;9.57;;;;;;;23.70;40.40;92616.63;5063300;28;20215;-75
2023/08/31 09:44:28;;;;;;;9.93;8.80;;;;;;;23.78;41.23;92609.53;5066422;28;20192;-75
2023/08/31 09:46:54;;;;;;;10.18;9.25;;;;;;;23.67;39.82;92614.69;5069103;28;20993;-77
2023/08/31 09:49:21;;;;;;;10.57;9.57;;;;;;;23.91;40.53;92620.75;5066926;28;20222;-75
2023/08/31 09:51:49;;;;;;;15.18;9.43;;;;;;;23.84;40.67;92612.63;5067903;28;20231;-76
2023/08/31 09:54:18;;;;;;;10.73;9.52;;;;;;;24.06;40.39;92625.19;5059818;28;20185;-77
2023/08/31 09:56:45;;;;;;;13.20;9.57;;;;;;;23.94;40.64;92612.78;5070858;28;20223;-76
2023/08/31 09:59:12;;;;;;;10.30;9.25;;;;;;;24.13;39.68;92609.25;5073900;28;20181;-75
2023/08/31 10:01:39;;;;;;;12.63;9.02;;;;;;;24.17;40.44;92615.41;5081862;28;20223;-79
2023/08/31 10:04:08;;;;;;;10.55;9.52;;;;;;;24.61;40.14;92621.66;5070799;28;20190;-77
2023/08/31 10:06:34;;;;;;;9.98;9.18;;;;;;;24.75;39.42;92616.50;5075952;28;20224;-74
2023/08/31 10:09:00;;;;;;;9.50;8.70;;;;;;;24.91;39.24;92625.84;5086316;28;20198;-74
2023/08/31 10:11:26;;;;;;;9.25;8.35;;;;;;;24.79;39.47;92622.66;5075438;28;20228;-74
2023/08/31 10:13:54;;;;;;;10.48;9.60;;;;;;;25.03;39.40;92625.59;5076506;28;20271;-74
2023/08/31 10:16:20;;;;;;;12.70;8.70;;;;;;;25.36;38.84;92613.31;5062608;28;20242;-75
2023/08/31 10:18:45;;;;;;;9.68;8.48;;;;;;;25.31;38.06;92614.38;5062607;28;20245;-77
2023/08/31 10:21:11;;;;;;;9.65;8.65;;;;;;;25.22;38.07;92621.94;5069702;28;20220;-77
2023/08/31 10:23:44;;;;;;;11.82;10.68;;;;;;;25.43;37.46;92616.84;5060290;28;20193;-74
2023/08/31 10:26:09;;;;;;;10.35;9.27;;;;;;;25.31;36.52;92619.00;5059458;28;21041;-75
2023/08/31 10:28:40;;;;;;;9.90;9.00;;;;;;;25.16;36.75;92626.09;5061177;28;20191;-84
2023/08/31 10:31:05;;;;;;;9.93;9.05;;;;;;;25.26;36.75;92622.75;5061621;28;20248;-80
2023/08/31 10:34:03;;;;;;;9.05;8.35;;;;;;;25.03;36.59;92627.47;5059964;28;20196;-82
2023/08/31 10:36:40;;;;;;;11.35;9.10;;;;;;;25.55;36.81;92627.25;5055134;28;20228;-76
2023/08/31 10:39:17;;;;;;;11.98;9.38;;;;;;;25.17;36.21;92619.59;5062585;28;20247;-84
2023/08/31 10:41:53;;;;;;;9.68;8.73;;;;;;;25.65;35.87;92639.91;5068438;28;20306;-78
2023/08/31 10:44:27;;;;;;;10.23;9.23;;;;;;;25.79;35.70;92650.72;5081609;28;20261;-77
2023/08/31 10:46:53;;;;;;;11.50;10.20;;;;;;;26.02;35.38;92654.00;5060730;28;20252;-75
2023/08/31 10:49:20;;;;;;;9.80;8.90;;;;;;;25.65;34.93;92650.59;5060879;28;20188;-75
2023/08/31 10:51:49;;;;;;;10.25;9.32;;;;;;;25.92;34.89;92648.50;5062211;28;20240;-76
2023/08/31 10:54:31;;;;;;;10.07;9.20;;;;;;;25.83;34.90;92651.53;5061377;28;20253;-79
2023/08/31 10:59:46;;;;;;;10.07;9.18;;;;;;;26.15;34.68;92644.50;5063953;28;20216;-76
2023/08/31 11:02:27;;;;;;;9.48;8.57;;;;;;;25.92;34.57;92651.97;5057219;28;20242;-76
2023/08/31 11:05:06;;;;;;;9.55;8.65;;;;;;;25.63;35.52;92631.50;5068624;28;20185;-75
2023/08/31 11:07:34;;;;;;;10.35;9.13;;;;;;;25.68;34.83;92641.88;5068280;28;20196;-79
2023/08/31 11:10:12;;;;;;;9.98;8.98;;;;;;;25.93;35.04;92645.47;5061379;28;20188;-83
2023/08/31 11:12:38;;;;;;;9.05;8.25;;;;;;;25.80;35.40;92643.47;5070642;28;20226;-78
2023/08/31 11:15:05;;;;;;;10.23;9.35;;;;;;;25.86;36.01;92645.44;5059915;28;20197;-79
2023/08/31 11:17:34;;;;;;;8.52;7.82;;;;;;;25.72;35.73;92660.59;5067751;28;20188;-82
2023/08/31 11:20:00;;;;;;;8.88;8.07;;;;;;;25.88;35.55;92648.50;5069771;28;20753;-77
2023/08/31 11:22:26;;;;;;;8.60;8.02;;;;;;;26.11;35.60;92656.31;5053129;28;20190;-77
2023/08/31 11:24:51;;;;;;;9.20;8.35;;;;;;;26.38;35.33;92655.72;5054023;28;20219;-77
2023/08/31 11:27:20;;;;;;;9.32;8.43;;;;;;;26.45;35.53;92655.75;5064965;28;20194;-77
2023/08/31 11:29:46;;;;;;;13.55;8.45;;;;;;;26.46;36.02;92651.94;5053314;28;20190;-83
2023/08/31 11:32:12;;;;;;;9.10;8.30;;;;;;;26.72;36.00;92659.72;5056015;28;20268;-82